Time;durP1;ratioP1;P1;durP2;ratioP2;P2;SDS_P1;SDS_P2;PMS_P1;PMS_P2;Temp;Humidity;BMP_temperature;BMP_pressure;BME280_temperature;BME280_humidity;BME280_pressure;Samples;Min_cycle;Max_cycle;Signal;HPM_P1;HPM_P2
2023/06/30 00:00:48;;;;;;;6.75;4.10;;;22.90;76.70;;;;;;5022763;28;20029;-73
2023/06/30 05:02:08;;;;;;;12.32;5.05;;;21.50;86.90;;;;;;5623959;23;19957;-74
2023/06/30 05:04:33;;;;;;;10.02;5.20;;;21.50;87.20;;;;;;4978848;28;20035;-77
2023/06/30 05:06:59;;;;;;;8.05;4.78;;;21.60;87.60;;;;;;4983590;28;20074;-74
2023/06/30 05:09:25;;;;;;;10.45;5.75;;;21.60;87.10;;;;;;4984099;28;20019;-74
2023/06/30 05:11:51;;;;;;;10.23;5.65;;;21.60;87.50;;;;;;4984217;28;20045;-76
2023/06/30 05:14:16;;;;;;;10.50;5.32;;;21.60;87.40;;;;;;4984076;28;20030;-75
2023/06/30 05:16:42;;;;;;;7.32;4.53;;;21.60;87.60;;;;;;4984260;28;20225;-74
2023/06/30 05:19:08;;;;;;;8.07;4.68;;;21.60;87.40;;;;;;4983479;28;20293;-74
2023/06/30 05:21:34;;;;;;;8.02;4.40;;;21.60;86.60;;;;;;4966572;28;20319;-75
2023/06/30 05:23:59;;;;;;;10.25;4.60;;;21.60;86.50;;;;;;4983497;28;20085;-75
2023/06/30 05:26:25;;;;;;;8.27;4.68;;;21.60;85.30;;;;;;4983915;28;20029;-75
2023/06/30 05:28:51;;;;;;;8.45;4.22;;;21.60;86.70;;;;;;4983368;28;20030;-75
2023/06/30 05:31:16;;;;;;;8.73;4.82;;;21.50;86.80;;;;;;4983638;28;20023;-75
2023/06/30 05:33:42;;;;;;;9.73;5.60;;;21.40;88.30;;;;;;4984029;28;20248;-75
2023/06/30 05:36:08;;;;;;;12.50;5.45;;;21.40;90.10;;;;;;4983300;28;20111;-75
2023/06/30 05:38:33;;;;;;;7.82;4.95;;;21.30;90.90;;;;;;4983860;28;20305;-75
2023/06/30 05:40:59;;;;;;;8.07;4.95;;;21.20;92.10;;;;;;4983321;28;20042;-75
2023/06/30 05:43:25;;;;;;;7.05;4.97;;;21.00;93.00;;;;;;4983938;28;20030;-75
2023/06/30 05:45:51;;;;;;;8.50;5.35;;;20.80;93.90;;;;;;4983489;28;20039;-76
2023/06/30 05:48:16;;;;;;;9.85;4.97;;;20.70;95.00;;;;;;4983916;28;20086;-74
2023/06/30 05:50:42;;;;;;;8.65;5.32;;;20.70;95.70;;;;;;4983693;28;20192;-75
2023/06/30 05:53:08;;;;;;;10.65;5.78;;;20.50;97.40;;;;;;4983402;28;20034;-73
2023/06/30 05:55:34;;;;;;;9.70;6.20;;;20.30;99.70;;;;;;4982699;28;20035;-75
2023/06/30 05:58:00;;;;;;;8.48;6.07;;;20.10;99.90;;;;;;4982071;28;20027;-74
2023/06/30 06:00:25;;;;;;;12.18;7.43;;;20.00;99.90;;;;;;4983678;28;20030;-74
2023/06/30 06:02:51;;;;;;;9.23;6.32;;;19.90;99.90;;;;;;4996854;28;20141;-73
2023/06/30 06:05:17;;;;;;;9.95;6.72;;;19.90;99.90;;;;;;5003131;28;20030;-74
2023/06/30 06:07:43;;;;;;;10.35;6.93;;;19.90;99.90;;;;;;5002653;28;20030;-74
2023/06/30 06:10:09;;;;;;;10.88;7.13;;;19.80;99.90;;;;;;5003797;28;20068;-74
2023/06/30 06:12:35;;;;;;;12.73;8.10;;;19.90;99.90;;;;;;5006784;28;20041;-74
2023/06/30 06:15:01;;;;;;;12.13;6.85;;;19.90;99.90;;;;;;4988925;28;20027;-73
2023/06/30 06:17:26;;;;;;;11.95;7.43;;;19.90;99.90;;;;;;4989175;28;20073;-74
2023/06/30 06:19:52;;;;;;;10.27;6.60;;;20.00;99.90;;;;;;4988414;28;20034;-74
2023/06/30 06:22:18;;;;;;;10.95;7.50;;;19.90;99.90;;;;;;4988980;28;20042;-73
2023/06/30 06:24:44;;;;;;;13.45;8.27;;;20.00;99.90;;;;;;5006112;28;20358;-74
2023/06/30 06:27:10;;;;;;;12.70;8.80;;;20.00;99.90;;;;;;5005793;28;20037;-75
2023/06/30 06:29:35;;;;;;;13.68;8.35;;;20.10;99.90;;;;;;5005779;28;20026;-74
2023/06/30 06:32:01;;;;;;;13.30;8.52;;;20.10;99.90;;;;;;5005674;28;20049;-75
2023/06/30 06:34:27;;;;;;;17.98;8.40;;;20.00;99.90;;;;;;5005910;28;20034;-74
2023/06/30 06:36:52;;;;;;;12.80;8.55;;;20.10;99.90;;;;;;5006124;28;20268;-74
2023/06/30 06:39:19;;;;;;;17.90;9.00;;;20.10;99.90;;;;;;4988616;28;20030;-73
2023/06/30 06:41:45;;;;;;;15.30;8.52;;;20.20;99.90;;;;;;5006241;28;20038;-74
2023/06/30 06:44:16;;;;;;;16.15;8.95;;;20.20;99.90;;;;;;4988045;28;20030;-74
2023/06/30 06:46:43;;;;;;;15.98;8.27;;;20.30;99.90;;;;;;5006005;28;20034;-74
2023/06/30 06:49:08;;;;;;;12.13;6.95;;;20.40;99.90;;;;;;4988186;28;20177;-75
2023/06/30 06:51:34;;;;;;;12.90;7.75;;;20.50;99.90;;;;;;5006008;28;20041;-73
2023/06/30 06:54:00;;;;;;;10.65;7.53;;;20.50;99.90;;;;;;5005330;28;20034;-73
2023/06/30 06:56:26;;;;;;;11.85;7.95;;;20.50;99.90;;;;;;5005666;28;20053;-73
2023/06/30 06:58:51;;;;;;;13.35;7.45;;;20.50;99.90;;;;;;5005391;28;20036;-72
2023/06/30 07:01:17;;;;;;;10.05;6.78;;;20.80;99.90;;;;;;5004864;28;20038;-73
2023/06/30 07:03:43;;;;;;;10.50;7.97;;;20.90;99.90;;;;;;5005282;28;20061;-72
2023/06/30 07:06:09;;;;;;;10.93;6.10;;;21.00;99.90;;;;;;5004540;28;20030;-73
2023/06/30 07:08:35;;;;;;;20.45;7.75;;;21.10;99.90;;;;;;4988230;28;20053;-74
2023/06/30 07:11:03;;;;;;;22.50;6.72;;;21.40;99.90;;;;;;5004767;28;20030;-74
2023/06/30 07:13:29;;;;;;;28.30;8.18;;;21.40;99.90;;;;;;5005265;28;20045;-73
2023/06/30 07:15:55;;;;;;;18.00;8.07;;;21.60;99.90;;;;;;5005256;28;20033;-75
2023/06/30 07:18:21;;;;;;;12.02;7.30;;;21.80;99.90;;;;;;5005263;28;20106;-73
2023/06/30 07:20:54;;;;;;;10.90;6.35;;;21.90;99.90;;;;;;5004576;28;20034;-73
2023/06/30 07:23:20;;;;;;;11.82;7.28;;;21.90;99.90;;;;;;5004699;28;20145;-74
2023/06/30 07:25:47;;;;;;;12.45;7.63;;;22.10;99.90;;;;;;5005277;28;20034;-74
2023/06/30 07:28:13;;;;;;;10.57;6.85;;;22.10;99.90;;;;;;5004772;28;20032;-73
2023/06/30 07:30:42;;;;;;;11.43;8.85;;;22.00;99.90;;;;;;5005237;28;20034;-73
2023/06/30 07:33:10;;;;;;;10.75;7.32;;;22.00;99.90;;;;;;5004547;28;20057;-73
2023/06/30 07:35:36;;;;;;;10.37;7.60;;;21.70;99.90;;;;;;5004871;28;20295;-72
2023/06/30 07:38:01;;;;;;;10.15;7.40;;;21.60;99.90;;;;;;5004662;28;20030;-74
2023/06/30 07:40:27;;;;;;;11.57;7.82;;;21.50;99.90;;;;;;5005028;28;20034;-73
2023/06/30 07:42:53;;;;;;;9.77;7.00;;;21.40;99.90;;;;;;5004436;28;20038;-71
2023/06/30 07:45:19;;;;;;;13.77;7.80;;;21.30;99.90;;;;;;5004071;28;20042;-73
2023/06/30 07:47:46;;;;;;;13.60;7.78;;;21.00;99.90;;;;;;5004541;28;20227;-74
2023/06/30 07:50:13;;;;;;;12.95;8.40;;;20.80;99.90;;;;;;5004213;28;20102;-72
2023/06/30 07:52:44;;;;;;;14.10;8.43;;;20.70;99.90;;;;;;5004560;28;20284;-73
2023/06/30 07:55:15;;;;;;;13.88;8.38;;;20.70;99.90;;;;;;5004143;28;20031;-72
2023/06/30 07:57:42;;;;;;;11.52;8.27;;;20.60;99.90;;;;;;5004374;28;20034;-72
2023/06/30 08:00:10;;;;;;;11.20;8.50;;;20.50;99.90;;;;;;5003793;28;20042;-72
2023/06/30 08:02:39;;;;;;;11.90;8.63;;;20.60;99.90;;;;;;5004685;28;20045;-72
2023/06/30 08:05:05;;;;;;;13.85;8.98;;;20.70;99.90;;;;;;5004335;28;20033;-76
2023/06/30 08:07:31;;;;;;;16.55;9.10;;;20.70;99.90;;;;;;5004319;28;20078;-73
2023/06/30 08:10:00;;;;;;;15.82;10.20;;;20.70;99.90;;;;;;5004617;28;20022;-73
2023/06/30 08:12:29;;;;;;;13.27;9.00;;;20.60;99.90;;;;;;5012877;28;20030;-72
2023/06/30 08:14:55;;;;;;;15.65;9.75;;;20.70;99.90;;;;;;5010864;28;20046;-76
2023/06/30 08:17:20;;;;;;;12.57;8.93;;;20.70;99.90;;;;;;5010332;28;20030;-72
2023/06/30 08:19:46;;;;;;;16.73;10.38;;;20.70;99.90;;;;;;5007422;28;20154;-74
2023/06/30 08:22:13;;;;;;;16.35;10.52;;;20.90;99.90;;;;;;5003675;28;20085;-74
2023/06/30 08:24:45;;;;;;;17.92;10.80;;;20.80;99.90;;;;;;4986777;28;20259;-73
2023/06/30 08:27:11;;;;;;;17.52;10.95;;;20.80;99.90;;;;;;5003665;28;20168;-75
2023/06/30 08:29:37;;;;;;;16.92;10.57;;;20.70;99.90;;;;;;5004087;28;20026;-74
2023/06/30 08:32:03;;;;;;;16.30;10.57;;;20.60;99.90;;;;;;5003430;28;20029;-74
2023/06/30 08:34:29;;;;;;;19.88;11.38;;;20.50;99.90;;;;;;5003575;28;20042;-74
2023/06/30 08:36:55;;;;;;;18.05;11.23;;;20.50;99.90;;;;;;5004012;28;20022;-74
2023/06/30 08:39:22;;;;;;;18.92;12.10;;;20.50;99.90;;;;;;5003374;28;20058;-75
2023/06/30 08:41:52;;;;;;;18.75;11.80;;;20.40;99.90;;;;;;5004129;28;20030;-74
2023/06/30 08:44:23;;;;;;;20.35;12.05;;;20.40;99.90;;;;;;4986023;28;20260;-73
2023/06/30 08:46:53;;;;;;;19.92;11.82;;;20.50;99.90;;;;;;5003889;28;20062;-76
2023/06/30 08:49:23;;;;;;;20.42;13.05;;;20.40;99.90;;;;;;5003584;28;20037;-74
2023/06/30 08:51:56;;;;;;;16.70;11.35;;;20.40;99.90;;;;;;5003823;28;20331;-73
2023/06/30 08:54:27;;;;;;;20.23;12.82;;;20.30;99.90;;;;;;5018559;28;20018;-74
2023/06/30 08:56:54;;;;;;;20.23;12.20;;;20.30;99.90;;;;;;5010662;28;20034;-73
2023/06/30 08:59:20;;;;;;;19.48;11.57;;;20.30;99.90;;;;;;5003243;28;20030;-74
2023/06/30 09:01:46;;;;;;;20.75;12.70;;;20.20;99.90;;;;;;5003247;28;20050;-73
2023/06/30 09:04:12;;;;;;;17.83;12.00;;;20.10;99.90;;;;;;5003007;28;20064;-74
2023/06/30 09:06:46;;;;;;;18.48;12.07;;;20.20;99.90;;;;;;5003676;28;20097;-74
2023/06/30 09:09:21;;;;;;;18.73;11.82;;;20.20;99.90;;;;;;5002997;28;20133;-75
2023/06/30 09:11:48;;;;;;;18.65;12.48;;;20.20;99.90;;;;;;5003180;28;20057;-75
2023/06/30 09:14:19;;;;;;;19.38;12.57;;;20.00;99.90;;;;;;5018292;28;20027;-75
2023/06/30 09:16:45;;;;;;;19.92;12.25;;;19.90;99.90;;;;;;5003101;28;20232;-73
2023/06/30 09:19:12;;;;;;;20.05;12.23;;;19.90;99.90;;;;;;5002493;28;20038;-74
2023/06/30 09:21:38;;;;;;;19.20;12.10;;;19.90;99.90;;;;;;5002899;28;20045;-73
2023/06/30 09:24:04;;;;;;;21.27;12.57;;;19.80;99.90;;;;;;4985232;28;20027;-74
2023/06/30 09:26:30;;;;;;;18.42;11.88;;;19.80;99.90;;;;;;5003250;28;20041;-73
2023/06/30 09:28:56;;;;;;;18.65;12.45;;;19.80;99.90;;;;;;5002231;28;20102;-75
2023/06/30 09:31:30;;;;;;;16.77;12.05;;;19.80;99.90;;;;;;5001811;28;20072;-74
2023/06/30 09:34:12;;;;;;;16.40;11.20;;;19.90;99.90;;;;;;5002459;28;20089;-74
2023/06/30 09:36:48;;;;;;;19.55;12.20;;;20.00;99.90;;;;;;5002833;28;20045;-74
2023/06/30 09:39:14;;;;;;;17.33;11.05;;;20.20;99.90;;;;;;5002526;28;20308;-74
2023/06/30 09:41:44;;;;;;;17.80;12.30;;;20.40;99.90;;;;;;5002872;28;20018;-73
2023/06/30 09:44:11;;;;;;;18.08;11.85;;;20.60;99.90;;;;;;5003212;28;20088;-74
2023/06/30 09:46:48;;;;;;;16.85;10.82;;;20.70;99.90;;;;;;4989929;28;20021;-74
2023/06/30 09:49:30;;;;;;;18.27;10.88;;;20.60;99.90;;;;;;5006383;28;20037;-73
2023/06/30 09:51:57;;;;;;;16.60;11.23;;;20.70;99.90;;;;;;5006793;28;20053;-73
2023/06/30 09:54:26;;;;;;;16.05;10.32;;;20.90;99.90;;;;;;5006398;28;20014;-73
2023/06/30 09:57:08;;;;;;;17.98;10.52;;;21.00;99.90;;;;;;5006328;28;20034;-73
2023/06/30 09:59:34;;;;;;;15.30;11.00;;;21.10;99.90;;;;;;5006809;28;20038;-74
2023/06/30 10:02:00;;;;;;;16.63;10.82;;;21.10;99.90;;;;;;5006014;28;20101;-75
2023/06/30 10:04:28;;;;;;;16.67;10.85;;;21.10;99.90;;;;;;5006894;28;20073;-74
2023/06/30 10:06:54;;;;;;;14.05;9.82;;;21.10;99.90;;;;;;5006886;28;20080;-75
2023/06/30 10:09:21;;;;;;;15.82;10.85;;;21.20;99.90;;;;;;4988906;28;20076;-74
2023/06/30 10:11:52;;;;;;;15.93;10.82;;;21.10;99.90;;;;;;5006582;28;20058;-75
2023/06/30 10:14:27;;;;;;;16.45;11.13;;;21.30;99.90;;;;;;5006281;28;20049;-74
2023/06/30 10:16:56;;;;;;;15.13;11.18;;;21.50;99.90;;;;;;5006705;28;20041;-74
2023/06/30 10:19:22;;;;;;;;;;;21.50;99.90;;;;;;5006709;28;20304;-72
2023/06/30 10:21:49;;;;;;;15.15;10.02;;;21.70;99.90;;;;;;5006209;28;19966;-72
2023/06/30 10:24:19;;;;;;;15.40;10.20;;;21.70;99.90;;;;;;5005869;28;20073;-75
2023/06/30 10:26:47;;;;;;;15.13;10.43;;;21.50;99.90;;;;;;5006023;28;20038;-72
2023/06/30 10:29:13;;;;;;;16.50;10.03;;;21.60;99.90;;;;;;5005697;28;20034;-73
2023/06/30 10:31:40;;;;;;;14.35;9.80;;;21.40;99.90;;;;;;5005935;28;20153;-74
2023/06/30 10:34:06;;;;;;;16.02;10.32;;;21.50;99.90;;;;;;5005273;28;20113;-74
2023/06/30 10:36:32;;;;;;;15.35;10.35;;;21.50;99.90;;;;;;5006412;28;20308;-76
2023/06/30 10:39:02;;;;;;;15.48;10.10;;;21.50;99.90;;;;;;4989082;28;20073;-75
2023/06/30 10:41:30;;;;;;;17.45;10.43;;;21.50;99.90;;;;;;4988518;28;20227;-75
2023/06/30 10:44:06;;;;;;;14.45;10.52;;;21.50;99.90;;;;;;5006017;28;20064;-76
2023/06/30 10:46:47;;;;;;;16.00;10.93;;;21.60;99.90;;;;;;5005926;28;20382;-76
2023/06/30 10:49:35;;;;;;;16.92;11.50;;;21.50;99.90;;;;;;5005895;28;20146;-76
2023/06/30 10:52:11;;;;;;;17.83;11.50;;;21.50;99.90;;;;;;4989406;28;20049;-76
2023/06/30 10:54:47;;;;;;;16.15;11.27;;;21.70;99.90;;;;;;5013715;28;20044;-74
2023/06/30 10:57:16;;;;;;;18.33;11.50;;;21.80;99.90;;;;;;5009013;28;20027;-74
2023/06/30 10:59:46;;;;;;;16.67;11.48;;;22.00;99.90;;;;;;5009085;28;20045;-73
2023/06/30 11:02:23;;;;;;;18.60;12.60;;;22.10;99.90;;;;;;5006008;28;20045;-75
2023/06/30 11:04:50;;;;;;;19.17;13.40;;;21.80;99.90;;;;;;5005723;28;20038;-74
2023/06/30 11:07:27;;;;;;;17.65;13.27;;;21.50;99.90;;;;;;5005553;28;20041;-74
2023/06/30 11:09:52;;;;;;;22.73;13.30;;;21.50;99.90;;;;;;5005726;28;20080;-74
2023/06/30 11:12:23;;;;;;;21.13;13.77;;;21.50;99.90;;;;;;5005046;28;20062;-74
2023/06/30 11:14:55;;;;;;;19.75;13.38;;;21.50;99.90;;;;;;5005513;28;20274;-74
2023/06/30 11:17:22;;;;;;;19.02;14.00;;;21.70;99.90;;;;;;5005298;28;20081;-74
2023/06/30 11:20:06;;;;;;;22.00;15.32;;;21.80;99.90;;;;;;5005681;28;20033;-74
2023/06/30 11:22:32;;;;;;;21.13;14.85;;;21.90;99.90;;;;;;5005411;28;20185;-74
2023/06/30 11:25:02;;;;;;;21.70;16.02;;;22.00;99.90;;;;;;5005299;28;20044;-74
2023/06/30 11:27:31;;;;;;;21.73;15.45;;;22.20;99.90;;;;;;5005411;28;20110;-73
2023/06/30 11:30:00;;;;;;;21.67;15.90;;;22.20;99.90;;;;;;5004023;28;20022;-73
2023/06/30 11:32:28;;;;;;;21.52;15.88;;;22.20;99.90;;;;;;5004932;28;20034;-73
2023/06/30 11:34:56;;;;;;;21.77;15.55;;;22.10;99.90;;;;;;4985845;28;20117;-73
2023/06/30 11:37:23;;;;;;;23.20;16.73;;;22.30;99.90;;;;;;4990269;28;20031;-73
2023/06/30 11:39:53;;;;;;;22.00;15.60;;;22.30;99.90;;;;;;5005233;28;20133;-72
2023/06/30 11:42:20;;;;;;;23.35;16.58;;;22.20;99.90;;;;;;5004629;28;20061;-72
2023/06/30 11:44:48;;;;;;;25.52;17.52;;;22.20;99.90;;;;;;5005355;28;20059;-72
2023/06/30 11:47:14;;;;;;;;;;;22.10;99.90;;;;;;5004893;28;20037;-73
2023/06/30 11:49:40;;;;;;;26.15;17.00;;;22.00;99.90;;;;;;5005163;28;19943;-72
2023/06/30 11:52:07;;;;;;;23.08;17.35;;;22.10;99.90;;;;;;5004262;28;20030;-73
2023/06/30 11:54:33;;;;;;;24.77;16.80;;;22.10;99.90;;;;;;5004848;28;20308;-73
2023/06/30 11:57:00;;;;;;;22.52;16.38;;;22.30;99.90;;;;;;4981389;28;20018;-74
2023/06/30 11:59:26;;;;;;;24.58;17.55;;;22.40;99.90;;;;;;5004709;28;20057;-73
2023/06/30 12:01:53;;;;;;;22.70;16.40;;;22.40;99.90;;;;;;5004028;28;20327;-73
2023/06/30 12:04:22;;;;;;;25.65;16.83;;;22.60;99.90;;;;;;5004354;28;20233;-73
2023/06/30 12:06:49;;;;;;;23.38;17.50;;;22.80;99.90;;;;;;4986998;28;20360;-73
2023/06/30 12:09:15;;;;;;;24.80;17.05;;;22.80;99.90;;;;;;5003842;28;20037;-73
2023/06/30 12:11:44;;;;;;;23.80;17.25;;;22.80;99.90;;;;;;5004611;28;20031;-73
2023/06/30 12:14:15;;;;;;;24.08;17.23;;;22.60;99.90;;;;;;4986803;28;20387;-73
2023/06/30 12:16:42;;;;;;;24.83;16.70;;;22.60;99.90;;;;;;5004655;28;20054;-73
2023/06/30 12:19:08;;;;;;;24.10;17.45;;;22.70;99.90;;;;;;4997106;28;20039;-73
2023/06/30 12:21:35;;;;;;;27.63;17.73;;;22.60;99.90;;;;;;4983774;28;20027;-74
2023/06/30 12:24:04;;;;;;;24.02;17.02;;;22.50;99.90;;;;;;4984571;28;20305;-74
2023/06/30 12:26:30;;;;;;;25.42;17.70;;;22.60;99.90;;;;;;4984908;28;20035;-73
2023/06/30 12:29:05;;;;;;;24.60;16.65;;;22.50;99.90;;;;;;4984638;28;20038;-73
2023/06/30 12:31:31;;;;;;;24.52;16.88;;;22.60;99.90;;;;;;4985016;28;20269;-73
2023/06/30 12:33:57;;;;;;;24.02;16.42;;;22.70;99.90;;;;;;4984819;28;20035;-73
2023/06/30 12:36:30;;;;;;;25.90;16.65;;;22.70;99.90;;;;;;4984067;28;20126;-74
2023/06/30 12:38:56;;;;;;;25.80;17.95;;;22.70;99.90;;;;;;4984868;28;20046;-74
2023/06/30 12:41:22;;;;;;;25.63;17.63;;;22.90;99.90;;;;;;4984062;28;20030;-74
2023/06/30 12:43:48;;;;;;;24.42;17.58;;;22.90;99.90;;;;;;5003151;28;20093;-74
2023/06/30 12:46:16;;;;;;;23.45;17.42;;;22.80;99.90;;;;;;5023433;28;20124;-77
2023/06/30 12:48:42;;;;;;;23.50;16.55;;;23.00;99.90;;;;;;5006564;28;20040;-76
2023/06/30 12:51:08;;;;;;;23.15;16.60;;;23.00;99.90;;;;;;4989455;28;20076;-77
2023/06/30 12:53:34;;;;;;;25.45;17.50;;;23.20;99.90;;;;;;5023545;28;20248;-76
2023/06/30 12:56:00;;;;;;;24.20;16.55;;;23.30;99.90;;;;;;5021042;28;20053;-76
2023/06/30 12:58:26;;;;;;;22.92;16.58;;;23.60;99.90;;;;;;5003152;28;20343;-76
2023/06/30 13:00:59;;;;;;;24.05;16.98;;;23.80;99.90;;;;;;5003248;28;20026;-75
2023/06/30 13:03:29;;;;;;;23.08;16.27;;;24.00;99.90;;;;;;4993145;28;20113;-76
2023/06/30 13:05:55;;;;;;;25.15;16.38;;;24.40;99.90;;;;;;5001743;28;20235;-76
2023/06/30 13:08:21;;;;;;;23.27;15.73;;;24.60;98.90;;;;;;5003188;28;20054;-75
2023/06/30 13:10:48;;;;;;;23.52;16.27;;;25.10;98.80;;;;;;5004121;28;20060;-78
2023/06/30 13:13:14;;;;;;;23.50;17.58;;;26.30;96.10;;;;;;5004985;28;20084;-76
2023/06/30 13:15:39;;;;;;;23.70;16.65;;;26.80;93.70;;;;;;5015566;28;20034;-75
2023/06/30 13:18:05;;;;;;;21.85;15.13;;;27.10;92.10;;;;;;5014720;28;20034;-78
2023/06/30 13:20:31;;;;;;;21.10;15.80;;;27.20;92.10;;;;;;5009527;28;20041;-77
2023/06/30 13:22:56;;;;;;;21.20;15.43;;;28.10;89.40;;;;;;5003607;28;20034;-77
2023/06/30 13:25:22;;;;;;;23.08;16.77;;;27.80;89.80;;;;;;4986026;28;20046;-75
2023/06/30 13:27:48;;;;;;;21.10;15.43;;;27.90;89.40;;;;;;5003418;28;20340;-75
2023/06/30 13:30:14;;;;;;;23.73;17.10;;;28.30;89.00;;;;;;5003219;28;20054;-75
2023/06/30 13:32:39;;;;;;;21.40;16.23;;;28.60;86.20;;;;;;5003563;28;20296;-75
2023/06/30 13:35:06;;;;;;;21.52;16.55;;;28.90;84.70;;;;;;5003284;28;20027;-75
2023/06/30 13:37:32;;;;;;;20.13;15.60;;;28.50;85.50;;;;;;5003555;28;20041;-76
2023/06/30 13:39:58;;;;;;;25.88;17.48;;;28.80;85.20;;;;;;5003369;28;20212;-75
2023/06/30 13:42:24;;;;;;;20.02;16.10;;;28.50;85.10;;;;;;5002758;28;20040;-75
2023/06/30 13:44:50;;;;;;;26.67;17.02;;;28.50;85.60;;;;;;5003350;28;20134;-76
2023/06/30 13:47:16;;;;;;;20.27;15.82;;;29.10;83.30;;;;;;5003042;28;20022;-75
2023/06/30 13:49:42;;;;;;;19.75;14.82;;;29.70;82.70;;;;;;5002919;28;20048;-76
2023/06/30 13:52:07;;;;;;;20.00;15.75;;;31.20;80.60;;;;;;5002873;28;20177;-75
2023/06/30 13:54:36;;;;;;;20.52;15.88;;;32.00;76.60;;;;;;5003868;28;20193;-76
2023/06/30 13:57:02;;;;;;;18.85;14.95;;;32.70;74.20;;;;;;5003002;28;20037;-77
2023/06/30 13:59:27;;;;;;;20.48;15.82;;;33.20;72.40;;;;;;5003462;28;20026;-76
2023/06/30 14:01:54;;;;;;;19.48;15.65;;;33.50;70.80;;;;;;5002426;28;20075;-75
2023/06/30 14:04:20;;;;;;;17.45;15.00;;;33.80;67.90;;;;;;5004027;28;20051;-75
2023/06/30 14:06:45;;;;;;;22.23;15.82;;;33.30;68.60;;;;;;5003339;28;20072;-75
2023/06/30 14:09:11;;;;;;;20.13;14.80;;;34.10;68.00;;;;;;5002755;28;20039;-75
2023/06/30 14:11:38;;;;;;;18.67;15.43;;;33.80;67.40;;;;;;5002957;28;20048;-75
2023/06/30 14:14:05;;;;;;;20.17;16.23;;;32.20;71.60;;;;;;5002494;28;20041;-76
2023/06/30 14:16:32;;;;;;;20.05;16.13;;;30.40;73.40;;;;;;5003176;28;20038;-74
2023/06/30 14:18:59;;;;;;;19.98;15.45;;;28.60;78.40;;;;;;5003042;28;20034;-75
2023/06/30 14:21:25;;;;;;;21.15;15.23;;;26.90;82.80;;;;;;5002919;28;20064;-74
2023/06/30 14:23:51;;;;;;;21.75;16.02;;;26.00;85.70;;;;;;5003377;28;20304;-75
2023/06/30 14:26:17;;;;;;;22.45;16.10;;;25.60;88.80;;;;;;5002476;28;20026;-75
2023/06/30 14:28:43;;;;;;;21.55;16.50;;;25.30;94.70;;;;;;5002797;28;20077;-76
2023/06/30 14:31:08;;;;;;;17.77;13.73;;;25.60;93.10;;;;;;5004376;28;20019;-75
2023/06/30 14:33:35;;;;;;;18.95;14.32;;;26.40;94.00;;;;;;5006788;28;20215;-76
2023/06/30 14:36:03;;;;;;;17.73;13.40;;;28.60;87.10;;;;;;5006093;28;20066;-76
2023/06/30 14:38:29;;;;;;;19.17;14.60;;;30.40;80.10;;;;;;5006424;28;20209;-77
2023/06/30 14:40:55;;;;;;;18.23;14.05;;;31.90;74.40;;;;;;5006719;28;20030;-76
2023/06/30 14:43:23;;;;;;;20.30;14.85;;;32.30;71.60;;;;;;5006413;28;20097;-76
2023/06/30 14:45:49;;;;;;;20.05;14.13;;;31.80;71.90;;;;;;4989148;28;20045;-76
2023/06/30 14:48:15;;;;;;;17.17;13.35;;;32.50;71.50;;;;;;5006179;28;20034;-76
2023/06/30 14:50:42;;;;;;;19.02;13.93;;;33.20;70.40;;;;;;5006146;28;20014;-76
2023/06/30 14:53:08;;;;;;;16.35;13.25;;;33.90;67.90;;;;;;5005350;28;20045;-76
2023/06/30 14:55:34;;;;;;;17.98;14.23;;;34.80;66.40;;;;;;5000342;28;20191;-76
2023/06/30 14:57:59;;;;;;;17.95;12.77;;;35.00;64.30;;;;;;5005795;28;20057;-75
2023/06/30 15:00:25;;;;;;;15.73;12.75;;;34.60;64.80;;;;;;5005676;28;20034;-75
2023/06/30 15:02:51;;;;;;;15.63;12.63;;;33.70;66.40;;;;;;5005596;28;20054;-75
2023/06/30 15:05:17;;;;;;;16.95;12.50;;;32.50;67.50;;;;;;5005451;28;20030;-76
2023/06/30 15:07:42;;;;;;;16.45;12.18;;;31.20;69.90;;;;;;5006432;28;20313;-74
2023/06/30 15:10:08;;;;;;;19.77;12.85;;;30.30;72.50;;;;;;5005884;28;20232;-74
2023/06/30 15:12:34;;;;;;;15.80;13.10;;;29.90;73.20;;;;;;5010569;28;20038;-75
2023/06/30 15:15:00;;;;;;;18.38;13.23;;;29.70;73.90;;;;;;5012614;28;20190;-74
2023/06/30 15:17:26;;;;;;;17.30;13.27;;;29.60;74.50;;;;;;5014501;28;20038;-75
2023/06/30 15:19:55;;;;;;;15.20;12.13;;;29.50;73.50;;;;;;5004911;28;20220;-75
2023/06/30 15:22:20;;;;;;;16.30;12.20;;;30.60;72.90;;;;;;5005289;28;20101;-75
2023/06/30 15:24:46;;;;;;;15.60;12.02;;;32.50;67.30;;;;;;5005487;28;20367;-75
2023/06/30 15:27:12;;;;;;;16.35;12.82;;;33.10;66.30;;;;;;4988083;28;20296;-75
2023/06/30 15:29:37;;;;;;;16.48;13.23;;;33.60;63.70;;;;;;5005966;28;20080;-74
2023/06/30 15:32:03;;;;;;;16.60;12.73;;;33.80;61.90;;;;;;5004989;28;20304;-75
2023/06/30 15:34:29;;;;;;;17.27;12.95;;;33.70;62.70;;;;;;5005480;28;20045;-74
2023/06/30 15:36:55;;;;;;;18.00;14.32;;;32.90;62.60;;;;;;5006123;28;20051;-72
2023/06/30 15:39:22;;;;;;;15.93;13.38;;;33.10;62.60;;;;;;5005068;28;20030;-73
2023/06/30 15:41:48;;;;;;;17.48;14.00;;;33.60;61.80;;;;;;5003650;28;20036;-73
2023/06/30 15:44:14;;;;;;;16.50;12.90;;;34.10;60.50;;;;;;5005054;28;20251;-73
2023/06/30 15:46:39;;;;;;;16.65;12.88;;;33.50;61.70;;;;;;5005504;28;20022;-73
2023/06/30 15:49:05;;;;;;;18.60;14.50;;;32.80;62.30;;;;;;4987172;28;20042;-73
2023/06/30 15:51:33;;;;;;;17.30;14.20;;;31.70;64.60;;;;;;5005133;28;20049;-73
2023/06/30 15:53:58;;;;;;;18.83;14.80;;;30.50;67.20;;;;;;5005007;28;20053;-73
2023/06/30 15:56:24;;;;;;;19.45;15.43;;;29.70;69.20;;;;;;5004631;28;20042;-73
2023/06/30 15:58:50;;;;;;;20.40;15.70;;;29.00;71.00;;;;;;5004913;28;20053;-74
2023/06/30 16:01:17;;;;;;;20.65;15.32;;;28.70;72.40;;;;;;5004038;28;20245;-74
2023/06/30 16:03:43;;;;;;;21.38;15.88;;;29.10;71.40;;;;;;5004780;28;20038;-73
2023/06/30 16:06:08;;;;;;;20.90;14.93;;;28.70;71.80;;;;;;5004283;28;20037;-74
2023/06/30 16:08:34;;;;;;;18.98;14.35;;;28.30;72.50;;;;;;5005031;28;20037;-73
2023/06/30 16:11:00;;;;;;;19.83;14.82;;;27.90;73.60;;;;;;4987453;28;20030;-74
2023/06/30 16:13:25;;;;;;;18.77;14.52;;;27.50;74.70;;;;;;5004251;28;20107;-74
2023/06/30 16:15:51;;;;;;;19.52;14.05;;;26.90;76.60;;;;;;5003772;28;20038;-74
2023/06/30 16:18:17;;;;;;;21.13;15.68;;;26.50;78.30;;;;;;5004095;28;20034;-74
2023/06/30 16:20:43;;;;;;;22.15;15.77;;;26.80;77.50;;;;;;4987533;28;20061;-74
2023/06/30 16:23:08;;;;;;;20.90;15.02;;;27.00;77.50;;;;;;5003979;28;20042;-74
2023/06/30 16:25:34;;;;;;;18.95;14.40;;;27.10;77.90;;;;;;5004795;28;20189;-74
2023/06/30 16:28:00;;;;;;;20.40;14.43;;;27.40;77.00;;;;;;5004635;28;20224;-74
2023/06/30 16:30:29;;;;;;;18.98;14.00;;;27.60;76.20;;;;;;5003791;28;20037;-73
2023/06/30 16:32:56;;;;;;;19.70;14.95;;;27.80;75.40;;;;;;5004078;28;20026;-74
2023/06/30 16:35:25;;;;;;;17.80;13.50;;;28.30;74.80;;;;;;5004174;28;20112;-74
2023/06/30 16:37:52;;;;;;;19.83;14.68;;;29.30;72.40;;;;;;5004285;28;20264;-75
2023/06/30 16:40:19;;;;;;;17.75;13.73;;;30.00;70.00;;;;;;5003847;28;20069;-74
2023/06/30 16:42:45;;;;;;;18.17;13.93;;;29.70;70.40;;;;;;4970778;28;20363;-74
2023/06/30 16:45:12;;;;;;;16.80;12.90;;;29.40;71.20;;;;;;5003750;28;20030;-74
2023/06/30 16:47:38;;;;;;;16.45;12.85;;;28.70;72.40;;;;;;5003041;28;20106;-74
2023/06/30 16:50:06;;;;;;;17.88;12.95;;;28.80;72.20;;;;;;5004314;28;20065;-74
2023/06/30 16:52:33;;;;;;;17.93;12.83;;;28.50;71.70;;;;;;5003180;28;20227;-74
2023/06/30 16:54:59;;;;;;;16.83;11.98;;;27.60;73.90;;;;;;5003783;28;20022;-74
2023/06/30 16:57:25;;;;;;;18.23;13.32;;;26.90;75.20;;;;;;5003325;28;20038;-74
2023/06/30 16:59:51;;;;;;;17.92;12.75;;;26.20;77.80;;;;;;5004314;28;20024;-74
2023/06/30 17:02:16;;;;;;;18.27;13.20;;;25.80;79.40;;;;;;4982569;28;20061;-75
2023/06/30 17:04:43;;;;;;;17.60;12.45;;;25.40;80.30;;;;;;4984751;28;20031;-74
2023/06/30 17:07:10;;;;;;;18.77;13.82;;;25.10;81.70;;;;;;4984519;28;20043;-75
2023/06/30 17:09:36;;;;;;;16.67;12.27;;;24.80;82.20;;;;;;4996010;28;20332;-76
2023/06/30 17:12:03;;;;;;;18.60;12.73;;;24.70;83.40;;;;;;4965219;29;20024;-74
2023/06/30 17:14:29;;;;;;;20.30;13.27;;;24.60;84.30;;;;;;4964254;29;20344;-74
2023/06/30 17:16:55;;;;;;;19.75;13.93;;;24.30;85.00;;;;;;4964846;29;20086;-74
2023/06/30 17:19:20;;;;;;;18.73;13.18;;;24.30;85.50;;;;;;4964733;29;20182;-74
2023/06/30 17:21:47;;;;;;;19.65;13.23;;;24.30;86.30;;;;;;4964410;29;20042;-76
2023/06/30 17:24:12;;;;;;;19.23;12.85;;;24.00;86.50;;;;;;4964169;29;20201;-74
2023/06/30 17:26:38;;;;;;;19.00;12.80;;;23.90;87.40;;;;;;4964544;29;20090;-76
2023/06/30 17:29:04;;;;;;;22.77;14.10;;;23.70;88.90;;;;;;4965023;29;20324;-73